createdAt,value
2023-04-10T00:00:36.304Z,21.15
2023-04-10T00:01:41.982Z,20.70
2023-04-10T00:02:50.309Z,20.60
2023-04-10T00:03:54.665Z,24.30
2023-04-10T00:05:01.732Z,24.40
2023-04-10T00:06:08.102Z,22.17
2023-04-10T00:07:17.569Z,21.77
2023-04-10T00:08:25.087Z,21.27
2023-04-10T00:09:32.406Z,24.17
2023-04-10T00:10:36.863Z,23.40
2023-04-10T00:11:43.287Z,21.58
2023-04-10T00:12:47.322Z,23.02
2023-04-10T00:13:56.266Z,24.50
2023-04-10T00:14:59.867Z,22.30
2023-04-10T00:16:16.577Z,24.80
2023-04-10T00:17:20.178Z,21.13
2023-04-10T00:18:32.050Z,22.67
2023-04-10T00:19:35.552Z,22.60
2023-04-10T00:20:44.925Z,23.50
2023-04-10T00:21:51.718Z,22.73
2023-04-10T00:23:06.815Z,23.25
2023-04-10T00:24:16.491Z,23.38
2023-04-10T00:25:23.743Z,22.08
2023-04-10T00:26:32.332Z,22.52
2023-04-10T00:27:44.827Z,21.50
2023-04-10T00:28:48.391Z,21.95
2023-04-10T00:30:03.224Z,23.80
2023-04-10T00:31:13.164Z,23.08
2023-04-10T00:32:18.530Z,21.48
2023-04-10T00:33:32.073Z,21.88
2023-04-10T00:34:38.252Z,22.38
2023-04-10T00:35:50.508Z,23.27
2023-04-10T00:36:57.670Z,24.15
2023-04-10T00:38:07.420Z,26.35
2023-04-10T00:39:13.524Z,23.25
2023-04-10T00:40:20.083Z,22.58
2023-04-10T00:41:25.798Z,22.20
2023-04-10T00:42:34.515Z,18.88
2023-04-10T00:43:37.837Z,21.55
2023-04-10T00:44:47.102Z,20.95
2023-04-10T00:45:59.229Z,21.90
2023-04-10T00:47:10.398Z,22.92
2023-04-10T00:48:14.627Z,24.55
2023-04-10T00:49:25.548Z,22.45
2023-04-10T00:50:28.780Z,26.77
2023-04-10T00:51:38.433Z,20.50
2023-04-10T00:52:41.849Z,23.92
2023-04-10T00:53:48.262Z,25.33
2023-04-10T00:54:56.176Z,24.90
2023-04-10T00:56:04.299Z,25.33
2023-04-10T00:57:14.086Z,25.23
2023-04-10T00:58:17.901Z,22.33
2023-04-10T00:59:30.139Z,25.17
2023-04-10T01:00:44.733Z,23.88
2023-04-10T01:01:59.214Z,22.35
2023-04-10T01:03:06.655Z,24.50
2023-04-10T01:04:17.578Z,23.13
2023-04-10T01:05:24.450Z,23.10
2023-04-10T01:06:44.389Z,27.50
2023-04-10T01:08:15.799Z,26.98
2023-04-10T01:09:35.972Z,22.75
2023-04-10T01:10:52.041Z,22.25
2023-04-10T01:12:05.641Z,23.25
2023-04-10T01:13:20.803Z,21.55
2023-04-10T01:14:40.681Z,21.83
2023-04-10T01:15:53.948Z,26.00
2023-04-10T01:17:13.729Z,22.08
2023-04-10T01:18:27.552Z,22.05
2023-04-10T01:19:49.667Z,22.30
2023-04-10T01:20:59.815Z,22.60
2023-04-10T01:22:05.315Z,23.85
2023-04-10T01:23:32.987Z,22.35
2023-04-10T01:25:06.317Z,20.88
2023-04-10T01:26:17.483Z,26.13
2023-04-10T01:27:42.389Z,19.55
2023-04-10T01:29:16.939Z,20.20
2023-04-10T01:30:24.245Z,21.85
2023-04-10T01:31:44.745Z,21.73
2023-04-10T01:32:51.513Z,27.33
2023-04-10T01:34:02.539Z,20.80
2023-04-10T01:35:09.334Z,20.52
2023-04-10T01:36:16.905Z,22.10
2023-04-10T01:37:26.019Z,19.27
2023-04-10T01:38:33.994Z,21.50
2023-04-10T01:39:46.105Z,19.13
2023-04-10T01:40:59.136Z,18.02
2023-04-10T01:42:07.492Z,23.20
2023-04-10T01:43:17.359Z,22.52
2023-04-10T01:44:32.984Z,21.90
2023-04-10T01:45:39.612Z,22.50
2023-04-10T01:46:55.249Z,20.35
2023-04-10T01:47:59.174Z,22.75
2023-04-10T01:49:10.788Z,20.52
2023-04-10T01:50:17.335Z,20.75
2023-04-10T01:51:27.024Z,21.10
2023-04-10T01:52:37.677Z,23.65
2023-04-10T01:53:45.151Z,24.50
2023-04-10T01:54:50.550Z,25.00
2023-04-10T01:55:58.888Z,24.48
2023-04-10T01:57:04.616Z,24.67
2023-04-10T01:58:25.894Z,25.17
2023-04-10T01:59:34.513Z,22.20
2023-04-10T02:00:43.909Z,25.80
2023-04-10T02:02:08.932Z,22.83
2023-04-10T02:03:17.835Z,23.48
2023-04-10T02:04:24.791Z,22.08
2023-04-10T02:05:37.125Z,22.98
2023-04-10T02:06:55.189Z,18.80
2023-04-10T02:08:10.659Z,21.02
2023-04-10T02:09:35.368Z,22.58
2023-04-10T02:10:57.269Z,22.05
2023-04-10T02:13:17.133Z,21.45
2023-04-10T02:14:28.896Z,20.73
2023-04-10T02:15:38.030Z,21.85
2023-04-10T02:16:50.052Z,23.08
2023-04-10T02:17:54.971Z,21.70
2023-04-10T02:19:05.084Z,23.55
2023-04-10T02:20:10.175Z,22.42
2023-04-10T02:21:23.726Z,23.65
2023-04-10T02:22:36.881Z,21.75
2023-04-10T02:23:49.322Z,22.45
2023-04-10T02:25:03.900Z,19.95
2023-04-10T02:26:11.922Z,23.75
2023-04-10T02:27:16.677Z,26.08
2023-04-10T02:28:28.138Z,22.23
2023-04-10T02:29:32.790Z,21.63
2023-04-10T02:30:43.998Z,20.65
2023-04-10T02:31:53.582Z,20.77
2023-04-10T02:33:02.591Z,22.17
2023-04-10T02:34:08.149Z,22.45
2023-04-10T02:35:24.367Z,23.20
2023-04-10T02:36:30.972Z,20.65
2023-04-10T02:37:48.306Z,23.13
2023-04-10T02:38:54.177Z,22.55
2023-04-10T02:40:04.176Z,23.80
2023-04-10T02:41:08.501Z,22.17
2023-04-10T02:42:23.473Z,32.30
2023-04-10T02:43:26.853Z,20.58
2023-04-10T02:44:36.440Z,22.83
2023-04-10T02:45:48.056Z,18.90
2023-04-10T02:48:07.451Z,26.25
2023-04-10T02:49:16.552Z,20.17
2023-04-10T02:50:20.197Z,22.48
2023-04-10T02:51:34.032Z,27.33
2023-04-10T02:52:41.763Z,29.02
2023-04-10T02:53:48.486Z,26.67
2023-04-10T02:54:58.660Z,29.88
2023-04-10T02:56:08.345Z,27.90
2023-04-10T02:57:12.995Z,28.38
2023-04-10T02:58:23.186Z,27.48
2023-04-10T03:03:11.336Z,28.20
2023-04-10T03:04:18.896Z,23.00
2023-04-10T03:05:29.510Z,21.88
2023-04-10T03:06:33.258Z,23.98
2023-04-10T03:07:39.988Z,20.42
2023-04-10T03:08:43.721Z,22.13
2023-04-10T03:09:51.212Z,21.27
2023-04-10T03:10:56.056Z,22.23
2023-04-10T03:12:05.362Z,25.58
2023-04-10T03:13:10.763Z,22.75
2023-04-10T03:14:23.886Z,22.55
2023-04-10T03:15:31.549Z,22.02
2023-04-10T03:16:39.353Z,22.48
2023-04-10T03:17:54.538Z,22.92
2023-04-10T03:19:04.957Z,22.75
2023-04-10T03:20:10.344Z,23.00
2023-04-10T03:21:22.901Z,23.38
2023-04-10T03:22:28.631Z,24.38
2023-04-10T03:23:38.190Z,21.52
2023-04-10T03:24:42.283Z,21.92
2023-04-10T03:25:55.429Z,22.05
2023-04-10T03:27:04.611Z,20.42
2023-04-10T03:28:10.730Z,22.20
2023-04-10T03:29:19.648Z,22.73
2023-04-10T03:30:28.596Z,21.02
2023-04-10T03:31:38.126Z,23.42
2023-04-10T03:32:55.230Z,22.95
2023-04-10T03:34:02.980Z,22.08
2023-04-10T03:35:15.210Z,21.92
2023-04-10T03:36:21.585Z,23.20
2023-04-10T03:37:28.784Z,19.85
2023-04-10T03:38:44.997Z,23.45
2023-04-10T03:39:54.063Z,22.33
2023-04-10T03:41:00.069Z,22.70
2023-04-10T03:42:04.146Z,20.85
2023-04-10T03:43:12.569Z,23.15
2023-04-10T03:45:31.849Z,23.20
2023-04-10T03:46:36.583Z,27.25
2023-04-10T03:47:44.249Z,25.30
2023-04-10T03:48:48.943Z,25.25
2023-04-10T04:12:14.824Z,27.40
2023-04-10T04:13:21.882Z,24.15
2023-04-10T04:14:30.192Z,26.48
2023-04-10T04:15:38.196Z,28.58
2023-04-10T04:16:43.522Z,28.15
2023-04-10T04:17:51.236Z,31.80
2023-04-10T04:18:55.872Z,30.20
2023-04-10T04:20:04.314Z,28.83
2023-04-10T04:21:09.442Z,29.52
2023-04-10T04:22:21.024Z,33.00
2023-04-10T04:24:37.172Z,28.17
2023-04-10T04:25:40.981Z,30.48
2023-04-10T04:26:50.630Z,28.00
2023-04-10T04:27:57.193Z,30.40
2023-04-10T04:29:10.604Z,34.17
2023-04-10T04:30:16.419Z,33.83
2023-04-10T04:31:23.779Z,31.25
2023-04-10T04:32:29.381Z,29.35
2023-04-10T04:33:38.685Z,29.77
2023-04-10T04:34:42.914Z,29.10
2023-04-10T04:35:53.093Z,26.63
2023-04-10T04:37:00.543Z,30.52
2023-04-10T04:38:07.191Z,27.50
2023-04-10T04:39:10.980Z,30.92
2023-04-10T04:40:24.731Z,28.33
2023-04-10T04:41:31.358Z,28.25
2023-04-10T04:42:39.993Z,28.67
2023-04-10T04:43:48.594Z,28.55
2023-04-10T04:44:55.853Z,30.20
2023-04-10T04:46:00.802Z,33.53
2023-04-10T04:47:11.146Z,32.45
2023-04-10T04:48:15.904Z,33.15
2023-04-10T04:49:22.058Z,31.20
2023-04-10T04:50:25.653Z,29.13
2023-04-10T04:51:34.108Z,31.17
2023-04-10T04:52:37.996Z,27.25
2023-04-10T04:53:44.487Z,26.98
2023-04-10T04:54:48.144Z,31.02
2023-04-10T04:55:55.465Z,24.85
2023-04-10T04:56:59.447Z,29.10
2023-04-10T04:58:07.158Z,27.90
2023-04-10T04:59:14.259Z,26.13
2023-04-10T05:00:20.930Z,29.60
2023-04-10T05:01:25.421Z,28.38
2023-04-10T05:02:33.220Z,28.20
2023-04-10T05:03:37.893Z,28.58
2023-04-10T05:04:44.454Z,25.75
2023-04-10T05:05:49.017Z,28.10
2023-04-10T05:06:58.040Z,26.80
2023-04-10T05:08:01.248Z,29.08
2023-04-10T05:09:09.020Z,27.35
2023-04-10T05:10:14.313Z,26.42
2023-04-10T05:11:21.994Z,29.38
2023-04-10T05:12:26.390Z,28.08
2023-04-10T05:13:33.369Z,27.75
2023-04-10T05:14:40.049Z,26.75
2023-04-10T05:15:46.486Z,26.67
2023-04-10T05:16:50.430Z,26.73
2023-04-10T05:17:58.693Z,26.92
2023-04-10T05:19:03.154Z,26.83
2023-04-10T05:20:14.842Z,26.15
2023-04-10T05:21:19.030Z,28.58
2023-04-10T05:22:28.306Z,29.15
2023-04-10T05:23:32.094Z,26.02
2023-04-10T05:24:39.175Z,28.20
2023-04-10T05:25:43.999Z,26.55
2023-04-10T05:26:50.605Z,26.67
2023-04-10T05:27:54.814Z,27.48
2023-04-10T05:29:01.032Z,26.40
2023-04-10T05:30:09.337Z,26.42
2023-04-10T05:31:17.941Z,24.45
2023-04-10T05:32:21.981Z,27.70
2023-04-10T05:33:28.827Z,27.38
2023-04-10T05:34:32.666Z,25.45
2023-04-10T05:35:41.870Z,24.65
2023-04-10T05:36:45.553Z,28.92
2023-04-10T05:37:52.084Z,25.63
2023-04-10T05:38:56.191Z,24.50
2023-04-10T05:40:07.986Z,26.67
2023-04-10T05:41:16.035Z,25.55
2023-04-10T05:42:21.501Z,26.60
2023-04-10T05:43:31.343Z,26.55
2023-04-10T05:44:38.336Z,23.85
2023-04-10T05:45:45.416Z,23.70
2023-04-10T05:46:52.207Z,28.90
2023-04-10T05:47:58.884Z,28.33
2023-04-10T05:49:03.200Z,30.13
2023-04-10T05:50:10.652Z,30.95
2023-04-10T05:51:17.217Z,29.10
2023-04-10T05:52:23.847Z,37.22
2023-04-10T05:53:32.303Z,32.47
2023-04-10T05:54:42.107Z,28.92
2023-04-10T05:55:57.842Z,31.23
2023-04-10T05:57:02.787Z,33.60
2023-04-10T05:58:09.488Z,31.52
2023-04-10T05:59:14.061Z,30.83
2023-04-10T06:00:22.072Z,32.80
2023-04-10T06:01:31.985Z,34.17
2023-04-10T06:02:36.640Z,29.00
2023-04-10T06:03:45.712Z,31.27
2023-04-10T06:04:50.701Z,33.03
2023-04-10T06:05:57.721Z,30.13
2023-04-10T06:07:04.085Z,30.02
2023-04-10T06:08:08.167Z,29.40
2023-04-10T06:09:16.924Z,29.83
2023-04-10T06:10:21.938Z,32.58
2023-04-10T06:11:31.549Z,31.88
2023-04-10T06:12:37.913Z,31.13
2023-04-10T06:13:45.294Z,27.75
2023-04-10T06:14:50.089Z,28.58
2023-04-10T06:15:57.499Z,28.95
2023-04-10T06:17:04.005Z,30.88
2023-04-10T06:18:10.509Z,26.77
2023-04-10T06:19:15.140Z,29.13
2023-04-10T06:20:23.111Z,35.70
2023-04-10T06:21:27.736Z,30.70
2023-04-10T06:22:37.408Z,31.13
2023-04-10T06:23:41.771Z,29.60
2023-04-10T06:24:48.718Z,28.48
2023-04-10T06:25:57.647Z,29.92
2023-04-10T06:27:04.038Z,29.75
2023-04-10T06:28:08.856Z,30.65
2023-04-10T06:29:17.656Z,30.63
2023-04-10T06:30:22.086Z,33.55
2023-04-10T06:31:29.475Z,31.85
2023-04-10T06:32:39.761Z,29.95
2023-04-10T06:33:46.207Z,29.65
2023-04-10T06:34:56.088Z,30.45
2023-04-10T06:36:05.661Z,31.23
2023-04-10T06:37:11.580Z,31.60
2023-04-10T06:38:18.855Z,31.25
2023-04-10T06:39:23.951Z,33.03
2023-04-10T06:40:34.996Z,33.60
2023-04-10T06:41:42.749Z,34.95
2023-04-10T06:42:49.168Z,32.78
2023-04-10T06:43:59.993Z,30.95
2023-04-10T06:45:14.299Z,30.88
2023-04-10T06:46:21.295Z,32.75
2023-04-10T06:47:26.512Z,30.63
2023-04-10T06:48:37.767Z,28.10
2023-04-10T06:49:42.589Z,28.88
2023-04-10T06:50:51.772Z,29.27
2023-04-10T06:51:59.352Z,29.70
2023-04-10T06:53:04.298Z,27.60
2023-04-10T06:54:11.702Z,26.80
2023-04-10T06:55:15.681Z,26.90
2023-04-10T06:56:22.864Z,32.83
2023-04-10T06:57:26.886Z,30.17
2023-04-10T06:58:35.242Z,30.67
2023-04-10T06:59:39.549Z,27.17
2023-04-10T07:00:47.142Z,28.10
2023-04-10T07:01:53.526Z,27.42
2023-04-10T07:02:57.454Z,27.17
2023-04-10T07:04:07.978Z,30.02
2023-04-10T07:05:12.698Z,26.65
2023-04-10T07:06:22.974Z,26.08
2023-04-10T07:07:27.295Z,32.45
2023-04-10T07:08:37.975Z,47.95
2023-04-10T07:09:45.140Z,32.63
2023-04-10T07:10:53.733Z,27.92
2023-04-10T07:11:57.155Z,23.85
2023-04-10T07:13:03.773Z,29.20
2023-04-10T07:14:09.261Z,26.23
2023-04-10T07:15:15.727Z,28.13
2023-04-10T07:16:20.687Z,28.00
2023-04-10T07:17:25.772Z,29.40
2023-04-10T07:18:31.059Z,29.85
2023-04-10T07:19:38.765Z,28.42
2023-04-10T07:20:50.565Z,27.25
2023-04-10T07:21:57.430Z,27.30
2023-04-10T07:23:04.608Z,26.25
2023-04-10T07:24:07.811Z,26.42
2023-04-10T07:25:14.698Z,27.50
2023-04-10T07:26:17.391Z,26.30
2023-04-10T07:27:25.030Z,24.90
2023-04-10T07:28:28.470Z,28.63
2023-04-10T07:29:34.952Z,29.40
2023-04-10T07:30:41.556Z,26.10
2023-04-10T07:31:49.071Z,26.20
2023-04-10T07:32:55.951Z,25.63
2023-04-10T07:33:59.618Z,25.63
2023-04-10T07:35:07.896Z,26.63
2023-04-10T07:36:11.832Z,25.48
2023-04-10T07:37:19.199Z,26.85
2023-04-10T07:38:28.742Z,25.27
2023-04-10T07:39:35.603Z,25.33
2023-04-10T07:40:43.068Z,23.00
2023-04-10T07:41:47.687Z,22.13
2023-04-10T07:42:57.263Z,23.33
2023-04-10T07:44:23.968Z,21.80
2023-04-10T07:45:44.574Z,20.23
2023-04-10T07:46:59.736Z,23.92
2023-04-10T07:48:08.717Z,28.60
2023-04-10T07:49:22.148Z,23.02
2023-04-10T07:50:28.756Z,25.63
2023-04-10T07:51:34.594Z,24.00
2023-04-10T07:52:38.670Z,21.52
2023-04-10T07:53:46.332Z,21.73
2023-04-10T07:54:53.708Z,24.48
2023-04-10T07:55:57.009Z,23.70
2023-04-10T07:57:04.715Z,23.38
2023-04-10T07:58:08.790Z,22.73
2023-04-10T07:59:18.967Z,22.88
2023-04-10T08:00:28.981Z,23.75
2023-04-10T08:01:33.092Z,27.17
2023-04-10T08:02:42.339Z,27.17
2023-04-10T08:03:57.216Z,23.73
2023-04-10T08:05:08.505Z,23.05
2023-04-10T08:06:16.285Z,23.90
2023-04-10T08:07:28.190Z,23.10
2023-04-10T08:08:32.674Z,25.65
2023-04-10T08:09:41.559Z,24.95
2023-04-10T08:10:46.669Z,23.45
2023-04-10T08:11:53.350Z,23.73
2023-04-10T08:13:03.404Z,21.60
2023-04-10T08:14:10.795Z,25.27
2023-04-10T08:15:14.867Z,27.00
2023-04-10T08:16:24.085Z,24.63
2023-04-10T08:17:28.118Z,27.90
2023-04-10T08:18:35.944Z,26.25
2023-04-10T08:19:56.949Z,25.15
2023-04-10T08:21:04.538Z,24.33
2023-04-10T08:22:16.974Z,23.83
2023-04-10T08:23:23.600Z,24.45
2023-04-10T08:24:31.738Z,26.42
2023-04-10T08:25:35.572Z,24.02
2023-04-10T08:26:42.157Z,26.63
2023-04-10T08:27:48.729Z,24.30
2023-04-10T08:28:57.652Z,23.73
2023-04-10T08:30:04.530Z,22.80
2023-04-10T08:31:09.811Z,23.33
2023-04-10T08:32:16.207Z,22.38
2023-04-10T08:33:25.284Z,23.30
2023-04-10T08:34:31.177Z,25.27
2023-04-10T08:35:38.018Z,26.60
2023-04-10T08:36:43.777Z,25.60
2023-04-10T08:38:07.793Z,25.88
2023-04-10T08:39:15.963Z,23.98
2023-04-10T08:40:19.048Z,24.27
2023-04-10T08:41:25.202Z,24.23
2023-04-10T08:42:30.282Z,27.10
2023-04-10T08:43:36.825Z,25.95
2023-04-10T08:44:42.485Z,26.73
2023-04-10T08:45:50.203Z,13.75
2023-04-10T08:46:56.539Z,13.70
2023-04-10T08:48:09.753Z,14.10
2023-04-10T08:49:28.966Z,14.07
2023-04-10T08:50:34.629Z,15.25
2023-04-10T08:51:42.869Z,17.00
2023-04-10T08:52:52.100Z,14.95
2023-04-10T08:54:04.781Z,15.90
2023-04-10T08:55:11.037Z,11.20
2023-04-10T08:56:18.515Z,15.82
2023-04-10T08:57:25.275Z,12.98
2023-04-10T08:58:30.426Z,15.68
2023-04-10T08:59:36.289Z,14.93
2023-04-10T09:00:43.186Z,16.15
2023-04-10T09:01:48.004Z,13.48
2023-04-10T09:02:58.875Z,14.23
2023-04-10T09:04:01.798Z,19.67
2023-04-10T09:05:08.215Z,14.52
2023-04-10T09:06:15.382Z,12.75
2023-04-10T09:07:23.683Z,18.40
2023-04-10T09:08:33.103Z,19.63
2023-04-10T09:09:38.895Z,24.55
2023-04-10T09:10:41.344Z,20.65
2023-04-10T09:12:04.277Z,19.98
2023-04-10T09:13:09.256Z,12.15
2023-04-10T09:14:25.318Z,12.52
2023-04-10T09:15:33.173Z,13.82
2023-04-10T09:16:41.964Z,13.65
2023-04-10T09:18:02.012Z,10.63
2023-04-10T09:19:08.316Z,13.02
2023-04-10T09:20:31.261Z,16.15
2023-04-10T09:21:37.971Z,14.02
2023-04-10T09:22:44.573Z,12.80
2023-04-10T09:24:03.632Z,14.27
2023-04-10T09:25:10.579Z,12.98
2023-04-10T09:26:28.109Z,12.30
2023-04-10T09:27:36.919Z,12.90
2023-04-10T09:29:03.355Z,14.95
2023-04-10T09:30:12.887Z,16.30
2023-04-10T09:31:32.859Z,17.63
2023-04-10T09:32:49.471Z,22.90
2023-04-10T09:34:14.876Z,19.63
2023-04-10T09:35:28.416Z,18.00
2023-04-10T09:36:34.159Z,20.83
2023-04-10T09:37:41.377Z,24.27
2023-04-10T09:38:58.953Z,17.10
2023-04-10T09:40:06.729Z,17.65
2023-04-10T09:41:14.590Z,18.45
2023-04-10T09:42:33.127Z,18.23
2023-04-10T09:43:39.799Z,18.77
2023-04-10T09:44:49.343Z,18.95
2023-04-10T09:46:00.057Z,17.65
2023-04-10T09:47:22.460Z,17.48
2023-04-10T09:48:30.599Z,18.27
2023-04-10T09:49:53.245Z,19.05
2023-04-10T09:50:57.265Z,18.48
2023-04-10T09:52:03.904Z,15.95
2023-04-10T09:53:07.963Z,18.38
2023-04-10T09:54:17.586Z,17.45
2023-04-10T09:55:25.810Z,16.13
2023-04-10T09:56:33.913Z,20.05
2023-04-10T09:57:41.314Z,19.38
2023-04-10T09:58:45.897Z,19.90
2023-04-10T09:59:55.980Z,17.20
2023-04-10T10:01:04.417Z,17.55
2023-04-10T10:02:21.895Z,17.98
2023-04-10T10:03:30.200Z,18.38
2023-04-10T10:04:35.312Z,20.05
2023-04-10T10:05:45.412Z,17.77
2023-04-10T10:06:50.787Z,16.95
2023-04-10T10:07:58.150Z,16.52
2023-04-10T10:09:07.623Z,15.63
2023-04-10T10:10:14.037Z,15.52
2023-04-10T10:11:26.668Z,15.20
2023-04-10T10:12:36.837Z,17.35
2023-04-10T10:13:55.560Z,18.58
2023-04-10T10:15:06.053Z,17.10
2023-04-10T10:16:23.549Z,17.13
2023-04-10T10:17:36.229Z,16.33
2023-04-10T10:18:49.952Z,17.83
2023-04-10T10:20:05.501Z,16.50
2023-04-10T10:21:18.013Z,15.63
2023-04-10T10:22:28.473Z,17.52
2023-04-10T10:23:42.424Z,17.52
2023-04-10T10:24:48.255Z,19.52
2023-04-10T10:26:04.072Z,17.92
2023-04-10T10:27:14.522Z,18.92
2023-04-10T10:28:19.602Z,16.98
2023-04-10T10:29:30.684Z,18.45
2023-04-10T10:30:40.748Z,20.65
2023-04-10T10:31:48.930Z,18.55
2023-04-10T10:32:53.455Z,16.17
2023-04-10T10:34:10.133Z,15.75
2023-04-10T10:35:14.244Z,16.13
2023-04-10T10:36:23.252Z,16.25
2023-04-10T10:37:29.637Z,18.17
2023-04-10T10:38:43.764Z,18.33
2023-04-10T10:40:01.718Z,17.25
2023-04-10T10:41:27.804Z,16.60
2023-04-10T10:42:50.716Z,16.65
2023-04-10T10:44:08.549Z,17.55
2023-04-10T10:45:27.293Z,17.88
2023-04-10T10:46:42.068Z,19.58
2023-04-10T10:47:53.988Z,18.33
2023-04-10T10:48:59.818Z,17.92
2023-04-10T10:50:07.250Z,18.70
2023-04-10T10:51:13.257Z,19.05
2023-04-10T10:52:16.062Z,18.63
2023-04-10T10:53:39.328Z,17.55
2023-04-10T10:54:53.555Z,20.50
2023-04-10T10:56:43.566Z,15.70
2023-04-10T10:57:47.426Z,19.30
2023-04-10T10:58:57.949Z,18.02
2023-04-10T11:00:03.354Z,16.58
2023-04-10T11:01:12.780Z,17.58
2023-04-10T11:02:18.645Z,15.57
2023-04-10T11:03:40.951Z,15.68
2023-04-10T11:04:48.158Z,16.45
2023-04-10T11:05:55.787Z,18.98
2023-04-10T11:07:05.290Z,18.33
2023-04-10T11:08:12.696Z,15.98
2023-04-10T11:09:52.326Z,15.15
2023-04-10T11:11:02.803Z,17.05
2023-04-10T11:12:13.002Z,16.77
2023-04-10T11:13:22.500Z,17.75
2023-04-10T11:14:30.660Z,15.40
2023-04-10T11:15:42.793Z,16.77
2023-04-10T11:16:54.324Z,18.00
2023-04-10T11:19:14.167Z,16.00
2023-04-10T11:20:27.765Z,20.45
2023-04-10T11:21:31.952Z,16.33
2023-04-10T11:23:13.717Z,17.17
2023-04-10T11:24:17.007Z,17.75
2023-04-10T11:25:49.415Z,17.60
2023-04-10T11:26:56.945Z,17.75
2023-04-10T11:28:06.332Z,17.13
2023-04-10T11:29:38.210Z,15.07
2023-04-10T11:30:44.183Z,18.23
2023-04-10T11:31:48.528Z,18.27
2023-04-10T11:32:54.809Z,17.50
2023-04-10T11:34:09.224Z,15.73
2023-04-10T11:35:23.933Z,17.45
2023-04-10T11:36:34.673Z,18.58
2023-04-10T11:37:40.478Z,18.73
2023-04-10T11:38:59.978Z,18.45
2023-04-10T11:40:28.098Z,16.67
2023-04-10T11:41:35.811Z,14.73
2023-04-10T11:42:50.275Z,16.63
2023-04-10T11:44:05.972Z,16.55
2023-04-10T11:45:33.295Z,15.23
2023-04-10T11:46:41.517Z,16.60
2023-04-10T11:47:52.177Z,15.65
2023-04-10T11:49:01.234Z,13.07
2023-04-10T11:50:21.860Z,13.02
2023-04-10T11:51:36.480Z,15.02
2023-04-10T11:52:42.646Z,15.93
2023-04-10T11:53:50.483Z,14.77
2023-04-10T11:54:59.901Z,13.02
2023-04-10T11:56:08.477Z,13.07
2023-04-10T11:57:19.614Z,13.10
2023-04-10T11:58:34.742Z,13.70
2023-04-10T11:59:43.764Z,15.75
2023-04-10T12:00:50.991Z,14.63
2023-04-10T12:02:07.155Z,13.63
2023-04-10T12:03:16.120Z,16.02
2023-04-10T12:04:27.379Z,13.80
2023-04-10T12:05:46.804Z,14.18
2023-04-10T12:07:02.266Z,16.63
2023-04-10T12:08:11.332Z,14.30
2023-04-10T12:09:19.775Z,16.73
2023-04-10T12:10:23.748Z,16.63
2023-04-10T12:11:30.756Z,16.92
2023-04-10T12:12:38.430Z,15.93
2023-04-10T12:13:49.591Z,17.58
2023-04-10T12:14:59.943Z,14.98
2023-04-10T12:16:05.734Z,17.88
2023-04-10T12:17:13.925Z,14.00
2023-04-10T12:18:18.287Z,14.55
2023-04-10T12:19:25.494Z,13.98
2023-04-10T12:20:31.429Z,13.55
2023-04-10T12:21:41.440Z,14.18
2023-04-10T12:22:47.652Z,16.65
2023-04-10T12:23:53.462Z,16.95
2023-04-10T12:24:57.045Z,17.42
2023-04-10T12:26:24.881Z,15.55
2023-04-10T12:27:35.530Z,15.48
2023-04-10T12:28:40.493Z,22.80
2023-04-10T12:29:46.642Z,21.92
2023-04-10T12:30:53.520Z,22.98
2023-04-10T12:32:11.704Z,16.75
2023-04-10T12:33:15.842Z,16.63
2023-04-10T12:34:23.182Z,16.73
2023-04-10T12:35:39.663Z,18.67
2023-04-10T12:36:57.207Z,19.08
2023-04-10T12:38:00.800Z,17.80
2023-04-10T12:39:10.363Z,19.65
2023-04-10T12:40:16.466Z,17.35
2023-04-10T12:41:27.717Z,17.30
2023-04-10T12:42:46.150Z,14.65
2023-04-10T12:44:00.135Z,16.92
2023-04-10T12:45:05.118Z,16.35
2023-04-10T12:46:27.796Z,16.83
2023-04-10T12:47:35.989Z,12.65
2023-04-10T12:48:42.480Z,15.88
2023-04-10T12:50:21.532Z,15.82
2023-04-10T12:51:52.110Z,15.75
2023-04-10T12:53:06.438Z,14.30
2023-04-10T12:54:13.740Z,13.85
2023-04-10T12:55:24.751Z,15.57
2023-04-10T12:56:54.567Z,13.90
2023-04-10T12:58:01.536Z,14.23
2023-04-10T12:59:12.647Z,12.43
2023-04-10T13:00:19.690Z,13.02
2023-04-10T13:01:38.655Z,12.77
2023-04-10T13:03:15.111Z,15.85
2023-04-10T13:04:27.256Z,14.10
2023-04-10T13:05:30.650Z,14.93
2023-04-10T13:06:48.862Z,14.35
2023-04-10T13:08:05.064Z,16.15
2023-04-10T13:09:12.504Z,13.88
2023-04-10T13:10:17.584Z,16.30
2023-04-10T13:11:19.814Z,18.50
2023-04-10T13:12:26.264Z,16.40
2023-04-10T13:13:33.045Z,15.68
2023-04-10T13:14:35.534Z,17.25
2023-04-10T13:15:41.138Z,16.13
2023-04-10T13:16:49.626Z,18.65
2023-04-10T13:17:52.020Z,16.77
2023-04-10T13:18:57.272Z,17.23
2023-04-10T13:20:01.917Z,14.93
2023-04-10T13:21:07.463Z,16.92
2023-04-10T13:22:09.696Z,15.18
2023-04-10T13:23:14.844Z,15.95
2023-04-10T13:24:17.681Z,17.80
2023-04-10T13:25:22.910Z,18.45
2023-04-10T13:26:28.518Z,17.40
2023-04-10T13:27:31.010Z,16.98
2023-04-10T13:28:39.820Z,15.63
2023-04-10T13:29:44.092Z,18.95
2023-04-10T13:30:50.162Z,18.33
2023-04-10T13:32:06.098Z,16.58
2023-04-10T13:33:12.010Z,16.30
2023-04-10T13:34:14.408Z,16.80
2023-04-10T13:35:19.714Z,16.27
2023-04-10T13:36:22.813Z,14.52
2023-04-10T13:37:28.181Z,14.65
2023-04-10T13:38:38.674Z,14.45
2023-04-10T13:39:44.084Z,13.88
2023-04-10T13:40:49.625Z,15.75
2023-04-10T13:41:55.396Z,14.68
2023-04-10T13:43:00.565Z,14.45
2023-04-10T13:44:04.515Z,14.82
2023-04-10T13:45:10.701Z,13.38
2023-04-10T13:46:15.823Z,12.98
2023-04-10T13:47:25.096Z,14.50
2023-04-10T13:48:39.814Z,13.63
2023-04-10T13:49:45.869Z,14.25
2023-04-10T13:50:51.361Z,16.60
2023-04-10T13:51:56.165Z,13.80
2023-04-10T13:53:01.234Z,13.15
2023-04-10T13:54:04.934Z,13.85
2023-04-10T13:55:11.365Z,11.63
2023-04-10T13:56:17.603Z,13.00
2023-04-10T13:57:22.125Z,12.32
2023-04-10T13:58:32.326Z,9.63
2023-04-10T13:59:39.945Z,10.23
2023-04-10T14:00:48.711Z,16.17
2023-04-10T14:01:52.845Z,12.57
2023-04-10T14:03:01.902Z,13.80
2023-04-10T14:04:07.390Z,11.85
2023-04-10T14:05:14.247Z,10.75
2023-04-10T14:06:16.514Z,11.88
2023-04-10T14:07:22.020Z,11.38
2023-04-10T14:08:28.106Z,11.90
2023-04-10T14:09:30.893Z,11.15
2023-04-10T14:10:36.020Z,10.43
2023-04-10T14:11:38.793Z,13.23
2023-04-10T14:12:43.764Z,10.15
2023-04-10T14:13:46.157Z,11.32
2023-04-10T14:14:51.099Z,11.25
2023-04-10T14:15:53.949Z,10.73
2023-04-10T14:16:59.155Z,11.95
2023-04-10T14:18:04.311Z,7.97
2023-04-10T14:19:09.402Z,7.88
2023-04-10T14:20:14.673Z,8.55
2023-04-10T14:21:20.728Z,12.88
2023-04-10T14:22:25.927Z,12.77
2023-04-10T14:23:28.828Z,10.30
2023-04-10T14:24:34.035Z,12.18
2023-04-10T14:25:40.343Z,9.88
2023-04-10T14:26:42.674Z,8.45
2023-04-10T14:27:48.226Z,10.32
2023-04-10T14:28:50.381Z,8.98
2023-04-10T14:29:56.024Z,15.63
2023-04-10T14:30:58.359Z,11.77
2023-04-10T14:32:03.895Z,8.90
2023-04-10T14:33:08.836Z,9.35
2023-04-10T14:34:14.392Z,10.75
2023-04-10T14:35:16.780Z,10.10
2023-04-10T14:36:21.912Z,10.40
2023-04-10T14:37:24.068Z,9.45
2023-04-10T14:38:29.075Z,7.38
2023-04-10T14:39:31.642Z,7.53
2023-04-10T14:40:38.047Z,8.32
2023-04-10T14:41:40.979Z,7.82
2023-04-10T14:42:47.331Z,8.77
2023-04-10T14:43:52.512Z,11.45
2023-04-10T14:44:59.290Z,11.35
2023-04-10T14:46:03.609Z,12.38
2023-04-10T14:47:09.377Z,12.35
2023-04-10T14:48:14.646Z,12.20
2023-04-10T14:49:21.698Z,12.32
2023-04-10T14:50:23.944Z,7.03
2023-04-10T14:51:29.065Z,9.40
2023-04-10T14:52:33.919Z,11.05
2023-04-10T14:53:36.053Z,9.52
2023-04-10T14:54:42.875Z,11.65
2023-04-10T14:55:47.731Z,10.70
2023-04-10T14:56:52.759Z,11.57
2023-04-10T14:57:56.554Z,13.20
2023-04-10T14:59:02.735Z,11.00
2023-04-10T15:00:08.664Z,8.90
2023-04-10T15:01:14.197Z,8.77
2023-04-10T15:02:19.038Z,8.38
2023-04-10T15:03:27.619Z,8.65
2023-04-10T15:04:32.693Z,6.43
2023-04-10T15:05:38.302Z,7.75
2023-04-10T15:06:43.148Z,6.95
2023-04-10T15:07:45.316Z,12.38
2023-04-10T15:08:50.587Z,11.68
2023-04-10T15:09:57.016Z,23.63
2023-04-10T15:11:02.736Z,13.55
2023-04-10T15:12:05.317Z,14.65
2023-04-10T15:13:10.374Z,8.05
2023-04-10T15:14:16.489Z,9.30
2023-04-10T15:15:22.720Z,9.95
2023-04-10T15:16:28.060Z,7.30
2023-04-10T15:17:30.823Z,8.18
2023-04-10T15:18:41.502Z,7.88
2023-04-10T15:19:46.299Z,8.85
2023-04-10T15:20:48.507Z,9.73